createdAt,value
2019-04-20T00:00:07.624Z,309.37
2019-04-20T00:01:05.215Z,309.16
2019-04-20T00:02:07.231Z,309.63
2019-04-20T00:03:03.796Z,309.27
2019-04-20T00:04:03.185Z,309.72
2019-04-20T00:05:03.408Z,309.49
2019-04-20T00:06:03.527Z,309.48
2019-04-20T00:07:03.931Z,309.26
2019-04-20T00:08:09.089Z,309.24
2019-04-20T00:09:11.847Z,308.90
2019-04-20T00:10:10.938Z,308.70
2019-04-20T00:11:10.681Z,309.83
2019-04-20T00:12:10.743Z,309.48
2019-04-20T00:13:16.587Z,309.69
2019-04-20T00:14:08.959Z,309.60
2019-04-20T00:15:04.825Z,309.56
2019-04-20T00:16:04.033Z,308.98
2019-04-20T00:17:03.031Z,309.45
2019-04-20T00:18:05.383Z,309.61
2019-04-20T00:19:05.218Z,309.49
2019-04-20T00:20:09.651Z,309.28
2019-04-20T00:21:08.643Z,309.96
2019-04-20T00:22:07.937Z,309.30
2019-04-20T00:23:03.798Z,309.72
2019-04-20T00:24:10.326Z,309.63
2019-04-20T00:25:09.020Z,308.80
2019-04-20T00:26:13.188Z,310.04
2019-04-20T00:27:30.327Z,311.11
2019-04-20T00:28:19.898Z,309.77
2019-04-20T00:29:21.708Z,310.25
2019-04-20T00:30:24.848Z,309.78
2019-04-20T00:31:20.729Z,310.11
2019-04-20T00:32:15.569Z,309.67
2019-04-20T00:33:14.705Z,310.02
2019-04-20T00:34:13.164Z,310.67
2019-04-20T00:35:04.131Z,309.38
2019-04-20T00:36:03.235Z,310.37
2019-04-20T00:37:02.483Z,309.53
2019-04-20T00:38:03.375Z,310.01
2019-04-20T00:39:06.410Z,309.38
2019-04-20T00:40:04.233Z,309.44
2019-04-20T00:41:07.172Z,309.60
2019-04-20T00:42:06.574Z,309.58
2019-04-20T00:43:04.592Z,310.00
2019-04-20T00:44:07.225Z,309.59
2019-04-20T00:45:10.717Z,309.63
2019-04-20T00:46:08.249Z,309.70
2019-04-20T00:47:18.126Z,309.67
2019-04-20T00:48:18.417Z,310.04
2019-04-20T00:49:20.669Z,309.50
2019-04-20T00:50:22.845Z,309.57
2019-04-20T00:51:25.894Z,309.53
2019-04-20T00:52:31.107Z,310.02
2019-04-20T00:53:14.874Z,309.65
2019-04-20T00:54:04.014Z,309.86
2019-04-20T00:55:02.409Z,310.40
2019-04-20T00:56:03.401Z,309.93
2019-04-20T00:57:13.255Z,310.30
2019-04-20T00:58:14.755Z,310.57
2019-04-20T00:59:18.164Z,309.76
2019-04-20T01:00:21.952Z,310.05
2019-04-20T01:01:20.279Z,309.48
2019-04-20T01:02:19.408Z,310.95
2019-04-20T01:03:20.736Z,310.92
2019-04-20T01:04:20.291Z,310.27
2019-04-20T01:05:17.975Z,310.54
2019-04-20T01:06:24.790Z,310.49
2019-04-20T01:07:16.398Z,310.10
2019-04-20T01:08:06.056Z,309.58
2019-04-20T01:09:03.293Z,310.57
2019-04-20T01:10:02.681Z,310.82
2019-04-20T01:11:02.712Z,310.27
2019-04-20T01:12:05.173Z,310.69
2019-04-20T01:13:08.730Z,310.43
2019-04-20T01:14:07.922Z,309.91
2019-04-20T01:15:07.411Z,309.76
2019-04-20T01:16:08.741Z,310.46
2019-04-20T01:17:11.646Z,310.40
2019-04-20T01:18:03.034Z,310.71
2019-04-20T01:19:02.044Z,310.42
2019-04-20T01:20:02.104Z,310.48
2019-04-20T01:21:06.743Z,310.51
2019-04-20T01:22:09.145Z,310.47
2019-04-20T01:23:08.730Z,310.24
2019-04-20T01:24:05.389Z,310.73
2019-04-20T01:25:11.261Z,309.82
2019-04-20T01:26:08.881Z,311.05
2019-04-20T01:27:05.658Z,310.02
2019-04-20T01:28:20.063Z,310.04
2019-04-20T01:29:12.126Z,309.50
2019-04-20T01:30:13.047Z,310.59
2019-04-20T01:31:15.708Z,310.51
2019-04-20T01:32:15.614Z,310.78
2019-04-20T01:33:16.407Z,310.62
2019-04-20T01:34:14.632Z,311.00
2019-04-20T01:35:19.701Z,310.44
2019-04-20T01:36:24.009Z,311.09
2019-04-20T01:37:19.531Z,310.76
2019-04-20T01:38:20.922Z,310.43
2019-04-20T01:39:13.621Z,311.39
2019-04-20T01:40:05.871Z,310.94
2019-04-20T01:41:01.829Z,310.85
2019-04-20T01:42:02.391Z,310.98
2019-04-20T01:43:01.802Z,310.88
2019-04-20T01:44:02.598Z,310.42
2019-04-20T01:45:05.552Z,311.15
2019-04-20T01:46:11.182Z,310.54
2019-04-20T01:47:06.269Z,311.07
2019-04-20T01:48:03.087Z,310.02
2019-04-20T01:49:07.906Z,310.52
2019-04-20T01:50:08.575Z,309.99
2019-04-20T01:51:10.026Z,310.25
2019-04-20T01:52:13.052Z,310.40
2019-04-20T01:53:14.938Z,310.56
2019-04-20T01:54:17.728Z,310.52
2019-04-20T01:55:21.193Z,310.18
2019-04-20T01:56:18.129Z,310.11
2019-04-20T01:57:11.680Z,311.54
2019-04-20T01:58:25.481Z,312.42
2019-04-20T01:59:16.460Z,311.88
2019-04-20T02:00:10.707Z,310.55
2019-04-20T02:01:09.724Z,311.07
2019-04-20T02:02:07.807Z,311.55
2019-04-20T02:03:05.574Z,310.89
2019-04-20T02:04:03.327Z,311.16
2019-04-20T02:05:11.325Z,310.62
2019-04-20T02:06:08.447Z,311.39
2019-04-20T02:07:04.937Z,309.85
2019-04-20T02:08:01.919Z,311.25
2019-04-20T02:09:06.729Z,311.01
2019-04-20T02:10:06.340Z,311.38
2019-04-20T02:11:05.481Z,310.15
2019-04-20T02:12:08.256Z,311.64
2019-04-20T02:13:04.733Z,310.61
2019-04-20T02:14:04.936Z,311.36
2019-04-20T02:15:04.698Z,310.74
2019-04-20T02:16:13.935Z,309.07
2019-04-20T02:17:09.538Z,309.53
2019-04-20T02:18:16.470Z,310.68
2019-04-20T02:19:21.446Z,310.55
2019-04-20T02:20:23.343Z,310.00
2019-04-20T02:21:19.828Z,309.53
2019-04-20T02:22:13.602Z,309.49
2019-04-20T02:23:14.564Z,310.45
2019-04-20T02:24:05.727Z,311.19
2019-04-20T02:25:01.707Z,310.05
2019-04-20T02:26:01.401Z,310.76
2019-04-20T02:27:01.985Z,310.24
2019-04-20T02:28:18.946Z,310.42
2019-04-20T02:29:24.877Z,310.96
2019-04-20T02:30:30.114Z,310.82
2019-04-20T02:31:52.929Z,310.25
2019-04-20T02:32:33.277Z,310.24
2019-04-20T02:33:47.523Z,310.79
2019-04-20T02:34:40.023Z,310.43
2019-04-20T02:35:40.420Z,310.42
2019-04-20T02:36:40.357Z,309.83
2019-04-20T02:37:59.866Z,310.35
2019-04-20T02:38:58.399Z,310.42
2019-04-20T02:40:47.671Z,310.35
2019-04-20T02:41:51.436Z,311.31
2019-04-20T02:42:58.014Z,310.52
2019-04-20T02:45:40.756Z,310.11
2019-04-20T02:46:31.212Z,309.86
2019-04-20T02:48:33.718Z,310.77
2019-04-20T02:52:46.062Z,310.25
2019-04-20T02:53:46.602Z,310.87
2019-04-20T02:55:38.098Z,310.98
2019-04-20T02:56:43.151Z,312.61
2019-04-20T02:57:41.878Z,309.65
2019-04-20T02:58:34.847Z,310.59
2019-04-20T02:59:54.236Z,311.38
2019-04-20T03:00:49.541Z,310.50
2019-04-20T03:01:23.322Z,309.88
2019-04-20T03:02:19.037Z,311.13
2019-04-20T03:03:13.420Z,311.26
2019-04-20T03:04:05.438Z,311.53
2019-04-20T03:05:13.372Z,310.92
2019-04-20T03:06:18.491Z,310.98
2019-04-20T03:07:15.702Z,310.42
2019-04-20T03:08:20.261Z,310.96
2019-04-20T03:09:25.471Z,311.06
2019-04-20T03:10:26.514Z,310.77
2019-04-20T03:11:33.291Z,311.00
2019-04-20T03:12:30.395Z,311.01
2019-04-20T03:13:25.370Z,310.34
2019-04-20T03:14:18.573Z,311.22
2019-04-20T03:15:26.448Z,311.16
2019-04-20T03:16:22.184Z,310.20
2019-04-20T03:17:29.681Z,310.61
2019-04-20T03:18:19.727Z,311.54
2019-04-20T03:19:18.675Z,311.25
2019-04-20T03:20:24.430Z,310.95
2019-04-20T03:21:24.842Z,310.69
2019-04-20T03:22:35.282Z,311.86
2019-04-20T03:24:29.551Z,311.60
2019-04-20T03:25:24.212Z,312.20
2019-04-20T03:26:22.532Z,311.58
2019-04-20T03:27:19.473Z,310.68
2019-04-20T03:28:21.955Z,311.36
2019-04-20T03:29:18.843Z,311.29
2019-04-20T03:31:05.581Z,311.23
2019-04-20T03:31:41.536Z,310.63
2019-04-20T03:33:47.498Z,310.74
2019-04-20T03:34:48.696Z,309.90
2019-04-20T03:35:23.929Z,311.41
2019-04-20T03:36:25.142Z,310.58
2019-04-20T03:37:26.702Z,311.76
2019-04-20T03:38:20.210Z,310.44
2019-04-20T03:39:22.696Z,310.92
2019-04-20T03:40:19.158Z,311.24
2019-04-20T03:41:16.163Z,310.96
2019-04-20T03:42:03.665Z,310.43
2019-04-20T03:43:02.005Z,311.49
2019-04-20T03:44:07.662Z,311.32
2019-04-20T03:45:08.665Z,310.85
2019-04-20T03:46:07.798Z,310.77
2019-04-20T03:47:06.848Z,310.86
2019-04-20T03:48:14.116Z,311.13
2019-04-20T03:49:20.255Z,312.36
2019-04-20T03:50:27.314Z,311.80
2019-04-20T03:51:27.927Z,311.39
2019-04-20T03:52:19.205Z,311.28
2019-04-20T03:53:31.083Z,311.28
2019-04-20T03:54:16.044Z,311.27
2019-04-20T03:55:24.310Z,311.49
2019-04-20T03:56:26.814Z,311.23
2019-04-20T03:57:26.543Z,311.32
2019-04-20T03:58:19.785Z,311.73
2019-04-20T03:59:16.199Z,310.63
2019-04-20T04:00:21.943Z,310.68
2019-04-20T04:01:33.089Z,311.64
2019-04-20T04:02:29.876Z,310.47
2019-04-20T04:03:31.749Z,311.27
2019-04-20T04:04:25.462Z,310.76
2019-04-20T04:05:19.207Z,311.14
2019-04-20T04:06:12.365Z,313.12
2019-04-20T04:07:12.197Z,312.25
2019-04-20T04:08:12.173Z,310.34
2019-04-20T04:09:10.222Z,311.03
2019-04-20T04:10:16.879Z,312.74
2019-04-20T04:11:19.977Z,312.43
2019-04-20T04:12:12.201Z,311.38
2019-04-20T04:13:01.190Z,310.44
2019-04-20T04:14:00.755Z,311.30
2019-04-20T04:15:00.175Z,311.29
2019-04-20T04:16:04.894Z,310.90
2019-04-20T04:17:02.970Z,310.56
2019-04-20T04:18:05.991Z,310.85
2019-04-20T04:19:11.889Z,310.78
2019-04-20T04:20:08.120Z,311.09
2019-04-20T04:21:07.924Z,311.79
2019-04-20T04:22:12.450Z,311.51
2019-04-20T04:23:19.582Z,311.09
2019-04-20T04:24:12.896Z,311.80
2019-04-20T04:25:14.829Z,311.80
2019-04-20T04:26:20.410Z,311.30
2019-04-20T04:27:16.168Z,311.74
2019-04-20T04:28:13.752Z,311.17
2019-04-20T04:29:25.711Z,311.64
2019-04-20T04:30:14.916Z,311.47
2019-04-20T04:31:20.396Z,311.49
2019-04-20T04:32:33.282Z,312.35
2019-04-20T04:33:40.282Z,312.67
2019-04-20T04:34:20.954Z,311.43
2019-04-20T04:35:14.173Z,311.74
2019-04-20T04:36:17.710Z,313.35
2019-04-20T04:37:20.211Z,311.84
2019-04-20T04:39:20.989Z,312.18
2019-04-20T04:40:25.331Z,311.79
2019-04-20T04:42:22.619Z,312.95
2019-04-20T04:43:19.789Z,312.19
2019-04-20T04:44:15.126Z,311.89
2019-04-20T04:45:06.236Z,311.76
2019-04-20T04:46:01.720Z,312.02
2019-04-20T04:47:04.769Z,313.50
2019-04-20T04:48:01.990Z,311.22
2019-04-20T04:49:08.441Z,311.47
2019-04-20T04:50:11.051Z,312.00
2019-04-20T04:51:08.379Z,311.31
2019-04-20T04:52:06.185Z,311.36
2019-04-20T04:53:09.093Z,311.25
2019-04-20T04:54:12.921Z,312.10
2019-04-20T04:55:12.124Z,311.64
2019-04-20T04:56:07.379Z,311.43
2019-04-20T04:57:01.143Z,312.13
2019-04-20T04:58:00.209Z,311.57
2019-04-20T04:59:00.302Z,311.55
2019-04-20T04:59:59.682Z,311.83
2019-04-20T05:01:07.353Z,311.98
2019-04-20T05:02:02.148Z,311.62
2019-04-20T05:03:07.004Z,311.51
2019-04-20T05:04:23.251Z,310.98
2019-04-20T05:05:25.463Z,310.84
2019-04-20T05:06:19.728Z,311.00
2019-04-20T05:07:11.409Z,310.91
2019-04-20T05:08:10.105Z,311.74
2019-04-20T05:09:05.255Z,311.19
2019-04-20T05:10:01.213Z,311.46
2019-04-20T05:11:00.628Z,311.73
2019-04-20T05:12:05.432Z,312.45
2019-04-20T05:13:00.831Z,311.98
2019-04-20T05:14:04.952Z,311.72
2019-04-20T05:15:07.932Z,311.55
2019-04-20T05:16:16.799Z,311.50
2019-04-20T05:17:15.106Z,312.16
2019-04-20T05:18:20.578Z,312.64
2019-04-20T05:19:24.732Z,310.96
2019-04-20T05:20:18.095Z,311.43
2019-04-20T05:21:23.022Z,311.92
2019-04-20T05:22:19.371Z,311.50
2019-04-20T05:23:19.085Z,311.07
2019-04-20T05:24:17.918Z,310.63
2019-04-20T05:25:21.569Z,310.88
2019-04-20T05:26:19.989Z,311.51
2019-04-20T05:27:20.760Z,311.35
2019-04-20T05:28:13.122Z,311.07
2019-04-20T05:29:08.560Z,311.16
2019-04-20T05:30:01.255Z,311.73
2019-04-20T05:31:02.959Z,311.04
2019-04-20T05:32:08.116Z,311.44
2019-04-20T05:33:07.821Z,311.04
2019-04-20T05:35:21.543Z,311.46
2019-04-20T05:36:18.694Z,312.43
2019-04-20T05:37:29.074Z,311.57
2019-04-20T05:38:22.985Z,312.17
2019-04-20T05:39:26.841Z,310.89
2019-04-20T05:40:22.296Z,311.13
2019-04-20T05:41:16.949Z,313.67
2019-04-20T05:42:28.462Z,311.42
2019-04-20T05:43:24.611Z,311.16
2019-04-20T05:44:16.480Z,311.90
2019-04-20T05:45:18.169Z,310.95
2019-04-20T05:46:22.064Z,311.02
2019-04-20T05:47:23.825Z,311.58
2019-04-20T05:48:16.462Z,312.41
2019-04-20T05:49:23.362Z,310.88
2019-04-20T05:50:16.523Z,311.50
2019-04-20T05:51:26.876Z,312.43
2019-04-20T05:52:42.584Z,311.27
2019-04-20T05:53:19.319Z,310.68
2019-04-20T05:54:23.564Z,310.56
2019-04-20T05:55:20.833Z,311.20
2019-04-20T05:56:22.242Z,311.42
2019-04-20T05:57:25.061Z,311.52
2019-04-20T05:58:24.636Z,311.16
2019-04-20T05:59:19.214Z,311.36
2019-04-20T06:00:21.813Z,312.10
2019-04-20T06:01:22.854Z,311.20
2019-04-20T06:02:25.011Z,312.12
2019-04-20T06:03:22.817Z,311.26
2019-04-20T06:04:28.668Z,311.31
2019-04-20T06:05:21.941Z,310.88
2019-04-20T06:06:22.077Z,310.52
2019-04-20T06:07:26.016Z,312.69
2019-04-20T06:08:34.256Z,311.91
2019-04-20T06:09:24.051Z,311.15
2019-04-20T06:10:22.229Z,311.50
2019-04-20T06:11:22.180Z,310.75
2019-04-20T06:12:22.362Z,310.87
2019-04-20T06:13:15.960Z,311.46
2019-04-20T06:14:08.165Z,311.51
2019-04-20T06:15:13.229Z,311.30
2019-04-20T06:16:14.195Z,311.91
2019-04-20T06:17:20.920Z,311.79
2019-04-20T06:18:16.307Z,311.10
2019-04-20T06:19:26.408Z,311.06
2019-04-20T06:20:20.258Z,311.37
2019-04-20T06:21:24.975Z,311.02
2019-04-20T06:22:27.208Z,311.09
2019-04-20T06:23:24.143Z,311.44
2019-04-20T06:24:26.823Z,311.99
2019-04-20T06:25:40.818Z,311.08
2019-04-20T06:27:21.534Z,311.01
2019-04-20T06:28:20.349Z,311.05
2019-04-20T06:29:16.342Z,310.92
2019-04-20T06:30:14.084Z,310.94
2019-04-20T06:31:26.485Z,311.23
2019-04-20T06:32:28.563Z,310.82
2019-04-20T06:33:31.307Z,311.16
2019-04-20T06:35:33.616Z,312.10
2019-04-20T06:36:27.580Z,311.48
2019-04-20T06:37:17.944Z,310.93
2019-04-20T06:38:34.830Z,311.50
2019-04-20T06:39:24.140Z,310.39
2019-04-20T06:40:37.286Z,310.65
2019-04-20T06:41:33.037Z,310.97
2019-04-20T06:42:18.004Z,310.77
2019-04-20T06:43:19.172Z,310.67
2019-04-20T06:44:29.164Z,310.93
2019-04-20T06:45:27.713Z,311.19
2019-04-20T06:46:24.813Z,310.28
2019-04-20T06:47:21.277Z,310.53
2019-04-20T06:48:29.408Z,310.48
2019-04-20T06:50:20.033Z,310.25
2019-04-20T06:51:22.392Z,310.05
2019-04-20T06:52:26.211Z,310.69
2019-04-20T06:53:20.504Z,310.49
2019-04-20T06:54:11.433Z,310.10
2019-04-20T06:55:14.160Z,310.35
2019-04-20T06:56:24.322Z,310.05
2019-04-20T06:57:21.297Z,310.93
2019-04-20T06:58:36.435Z,311.23
2019-04-20T06:59:26.520Z,310.61
2019-04-20T07:00:30.560Z,310.28
2019-04-20T07:01:23.490Z,310.79
2019-04-20T07:02:23.516Z,310.05
2019-04-20T07:03:38.418Z,310.58
2019-04-20T07:04:39.791Z,310.30
2019-04-20T07:05:22.494Z,310.76
2019-04-20T07:06:36.410Z,310.12
2019-04-20T07:07:37.279Z,309.69
2019-04-20T07:08:33.540Z,309.92
2019-04-20T07:09:23.458Z,310.18
2019-04-20T07:11:23.893Z,309.64
2019-04-20T07:12:17.078Z,309.89
2019-04-20T07:13:12.829Z,309.00
2019-04-20T07:14:06.062Z,309.04
2019-04-20T07:15:19.507Z,309.29
2019-04-20T07:16:22.597Z,309.70
2019-04-20T07:18:37.573Z,301.83
2019-04-20T07:19:31.358Z,310.27
2019-04-20T07:20:35.138Z,309.77
2019-04-20T07:21:48.394Z,309.02
2019-04-20T07:22:33.773Z,309.52
2019-04-20T07:23:38.618Z,309.75
2019-04-20T07:24:35.099Z,310.91
2019-04-20T07:25:33.175Z,310.00
2019-04-20T07:26:38.636Z,309.90
2019-04-20T07:27:34.161Z,309.44
2019-04-20T07:28:35.350Z,309.42
2019-04-20T07:29:37.023Z,309.53
2019-04-20T07:30:32.470Z,309.89
2019-04-20T07:31:32.050Z,310.02
2019-04-20T07:32:23.407Z,309.55
2019-04-20T07:33:34.944Z,309.83
2019-04-20T07:34:26.606Z,309.66
2019-04-20T07:35:30.536Z,309.81
2019-04-20T07:36:32.412Z,309.95
2019-04-20T07:38:36.584Z,310.23
2019-04-20T07:39:33.100Z,310.37
2019-04-20T07:40:34.781Z,310.49
2019-04-20T07:41:43.560Z,309.94
2019-04-20T07:42:35.223Z,310.03
2019-04-20T07:43:34.858Z,311.44
2019-04-20T07:44:36.396Z,310.08
2019-04-20T07:45:37.619Z,310.04
2019-04-20T07:46:40.703Z,310.08
2019-04-20T07:47:34.701Z,310.42
2019-04-20T07:48:25.785Z,310.18
2019-04-20T07:49:32.617Z,310.34
2019-04-20T07:50:26.281Z,311.09
2019-04-20T07:51:19.393Z,311.34
2019-04-20T07:52:10.281Z,310.99
2019-04-20T07:53:28.390Z,311.24
2019-04-20T07:54:40.191Z,311.14
2019-04-20T07:55:39.096Z,310.44
2019-04-20T07:56:30.403Z,310.35
2019-04-20T07:57:25.669Z,310.77
2019-04-20T07:58:22.743Z,309.46
2019-04-20T07:59:22.257Z,310.30
2019-04-20T08:00:38.287Z,310.43
2019-04-20T08:01:38.473Z,310.44
2019-04-20T08:02:38.114Z,309.80
2019-04-20T08:03:33.679Z,309.95
2019-04-20T08:04:28.786Z,311.19
2019-04-20T08:05:22.783Z,310.95
2019-04-20T08:06:17.521Z,311.05
2019-04-20T08:07:12.387Z,309.83
2019-04-20T08:08:30.462Z,310.29
2019-04-20T08:09:21.956Z,310.14
2019-04-20T08:10:18.919Z,310.32
2019-04-20T08:11:32.095Z,308.74
2019-04-20T08:12:37.702Z,308.60
2019-04-20T08:14:30.670Z,308.45
2019-04-20T08:15:46.193Z,308.36
2019-04-20T08:16:41.014Z,308.96
2019-04-20T08:17:42.268Z,308.81
2019-04-20T08:18:35.096Z,309.25
2019-04-20T08:19:31.627Z,308.15
2019-04-20T08:20:27.995Z,309.45
2019-04-20T08:21:33.338Z,308.35
2019-04-20T08:22:35.467Z,308.76
2019-04-20T08:23:30.219Z,309.42
2019-04-20T08:24:27.888Z,308.79
2019-04-20T08:25:23.507Z,309.58
2019-04-20T08:26:18.208Z,309.05
2019-04-20T08:27:12.384Z,308.77
2019-04-20T08:28:17.813Z,308.23
2019-04-20T08:29:18.855Z,308.65
2019-04-20T08:30:23.052Z,308.23
2019-04-20T08:31:28.873Z,308.36
2019-04-20T08:32:30.717Z,308.40
2019-04-20T08:33:28.083Z,309.01
2019-04-20T08:34:31.182Z,308.72
2019-04-20T08:35:32.202Z,307.97
2019-04-20T08:36:36.021Z,309.00
2019-04-20T08:37:26.128Z,307.87
2019-04-20T08:38:57.815Z,309.29
2019-04-20T08:39:55.881Z,308.60
2019-04-20T08:40:36.054Z,308.43
2019-04-20T08:41:25.032Z,308.08
2019-04-20T08:42:30.717Z,308.50
2019-04-20T08:43:43.655Z,308.58
2019-04-20T08:44:47.050Z,309.75
2019-04-20T08:45:36.105Z,309.15
2019-04-20T08:46:37.814Z,309.49
2019-04-20T08:48:28.683Z,308.48
2019-04-20T08:49:36.127Z,309.23
2019-04-20T08:50:27.212Z,307.82
2019-04-20T08:51:34.694Z,308.15
2019-04-20T08:52:48.332Z,307.59
2019-04-20T08:53:30.687Z,307.12
2019-04-20T08:54:27.655Z,307.62
2019-04-20T08:55:26.646Z,308.03
2019-04-20T08:56:21.997Z,307.68
2019-04-20T08:57:09.141Z,307.76
2019-04-20T08:58:09.166Z,307.77
2019-04-20T08:59:09.341Z,307.60
2019-04-20T09:00:09.042Z,307.65
2019-04-20T09:01:10.277Z,307.33
2019-04-20T09:02:13.018Z,306.70
2019-04-20T09:03:17.316Z,306.91
2019-04-20T09:04:15.340Z,307.58
2019-04-20T09:05:18.645Z,307.95
2019-04-20T09:06:22.383Z,307.37
2019-04-20T09:07:17.517Z,307.83
2019-04-20T09:08:17.410Z,307.09
2019-04-20T09:09:40.324Z,307.28
2019-04-20T09:10:34.472Z,307.45
2019-04-20T09:11:25.029Z,307.74
2019-04-20T09:12:30.526Z,307.72
2019-04-20T09:13:20.818Z,307.35
2019-04-20T09:14:09.340Z,307.59
2019-04-20T09:15:08.272Z,307.91
2019-04-20T09:16:08.738Z,307.64
2019-04-20T09:17:11.328Z,307.84
2019-04-20T09:18:20.968Z,308.07
2019-04-20T09:19:12.950Z,307.16
2019-04-20T09:20:14.275Z,307.31
2019-04-20T09:21:23.375Z,307.53
2019-04-20T09:22:16.130Z,307.79
2019-04-20T09:23:23.881Z,306.87
2019-04-20T09:24:36.599Z,307.43
2019-04-20T09:26:26.936Z,306.64
2019-04-20T09:27:21.872Z,306.91
2019-04-20T09:28:19.829Z,307.16
2019-04-20T09:29:21.884Z,307.34
2019-04-20T09:30:25.657Z,306.40
2019-04-20T09:31:21.258Z,307.24
2019-04-20T09:32:23.193Z,306.46
2019-04-20T09:33:31.827Z,306.01
2019-04-20T09:34:24.650Z,306.41
2019-04-20T09:35:26.645Z,306.18
2019-04-20T09:36:24.217Z,306.29
2019-04-20T09:37:27.911Z,306.40
2019-04-20T09:38:22.136Z,306.93
2019-04-20T09:39:18.638Z,306.42
2019-04-20T09:40:29.294Z,305.51
2019-04-20T09:41:34.922Z,306.51
2019-04-20T09:42:08.315Z,305.07
2019-04-20T09:43:08.686Z,306.62
2019-04-20T09:44:07.329Z,306.28
2019-04-20T09:45:08.305Z,305.58
2019-04-20T09:46:08.878Z,305.35
2019-04-20T09:47:09.169Z,305.65
2019-04-20T09:48:16.616Z,306.68
2019-04-20T09:49:20.100Z,305.65
2019-04-20T09:50:25.054Z,305.20
2019-04-20T09:51:24.450Z,306.29
2019-04-20T09:52:17.335Z,306.10
2019-04-20T09:53:29.887Z,306.39
2019-04-20T09:54:26.750Z,304.44
2019-04-20T09:56:39.774Z,297.71
2019-04-20T09:57:50.176Z,304.53
2019-04-20T09:59:53.732Z,295.72
2019-04-20T10:02:13.188Z,297.70
2019-04-20T10:03:04.505Z,305.54
2019-04-20T10:04:03.549Z,303.90
2019-04-20T10:05:03.509Z,305.27
2019-04-20T10:06:03.521Z,306.12
2019-04-20T10:07:11.191Z,306.09
2019-04-20T10:08:06.761Z,301.86
2019-04-20T10:09:05.160Z,305.19
2019-04-20T10:10:23.899Z,305.27
2019-04-20T10:11:05.631Z,306.25
2019-04-20T10:12:03.809Z,305.52
2019-04-20T10:13:05.595Z,305.70
2019-04-20T10:14:03.980Z,305.52
2019-04-20T10:15:12.191Z,304.37
2019-04-20T10:16:04.364Z,303.12
2019-04-20T10:17:03.338Z,305.42
2019-04-20T10:18:12.148Z,303.67
2019-04-20T10:19:03.363Z,304.78
2019-04-20T10:20:24.360Z,305.63
2019-04-20T10:21:05.443Z,304.00
2019-04-20T10:22:04.560Z,303.79
2019-04-20T10:23:04.574Z,303.81
2019-04-20T10:24:03.269Z,305.66
2019-04-20T10:25:04.471Z,304.10
2019-04-20T10:26:04.648Z,304.76
2019-04-20T10:28:21.438Z,295.55
2019-04-20T10:29:21.538Z,305.32
2019-04-20T10:30:20.742Z,305.26
2019-04-20T10:31:20.433Z,302.68
2019-04-20T10:32:21.498Z,303.81
2019-04-20T10:33:21.724Z,303.82
2019-04-20T10:34:23.660Z,305.31
2019-04-20T10:35:21.076Z,303.21
2019-04-20T10:36:21.468Z,306.03
2019-04-20T10:37:20.153Z,305.14
2019-04-20T10:38:21.436Z,306.04
2019-04-20T10:39:20.396Z,304.59
2019-04-20T10:40:34.424Z,301.37
2019-04-20T10:41:33.913Z,305.85
2019-04-20T10:42:21.138Z,305.39
2019-04-20T10:43:20.037Z,305.78
2019-04-20T10:44:20.936Z,304.18
2019-04-20T10:45:21.285Z,305.55
2019-04-20T10:46:20.744Z,303.93
2019-04-20T10:47:21.131Z,304.95
2019-04-20T10:48:21.361Z,305.00
2019-04-20T10:49:19.973Z,305.28
2019-04-20T10:50:20.925Z,304.41
2019-04-20T10:51:19.958Z,304.59
2019-04-20T10:52:20.051Z,304.69
2019-04-20T10:53:19.975Z,304.58
2019-04-20T10:54:20.470Z,303.51
2019-04-20T10:55:20.766Z,304.84
2019-04-20T10:56:21.248Z,306.21
2019-04-20T10:57:19.870Z,304.41
2019-04-20T10:58:19.872Z,303.50
2019-04-20T10:59:19.862Z,300.87
2019-04-20T11:00:19.846Z,303.08
2019-04-20T11:01:19.975Z,303.05
2019-04-20T11:02:19.834Z,302.63
2019-04-20T11:03:19.810Z,304.75
2019-04-20T11:04:20.891Z,306.86
2019-04-20T11:05:20.412Z,305.28
2019-04-20T11:06:20.568Z,301.44
2019-04-20T11:07:20.735Z,304.04
2019-04-20T11:08:20.356Z,304.14
2019-04-20T11:09:20.709Z,304.83
2019-04-20T11:10:25.269Z,303.65
2019-04-20T11:11:26.500Z,301.26
2019-04-20T11:12:22.067Z,302.47
2019-04-20T11:13:19.709Z,301.29
2019-04-20T11:14:26.369Z,303.19
2019-04-20T11:15:20.975Z,303.53
2019-04-20T11:16:20.206Z,303.92
2019-04-20T11:17:20.426Z,303.98
2019-04-20T11:18:19.753Z,304.24
2019-04-20T11:19:21.126Z,302.42
2019-04-20T11:20:19.643Z,304.04
2019-04-20T11:21:19.705Z,304.58
2019-04-20T11:22:20.092Z,302.16
2019-04-20T11:23:20.371Z,302.28
2019-04-20T11:24:20.488Z,299.97
2019-04-20T11:25:19.925Z,304.11
2019-04-20T11:26:20.256Z,303.67
2019-04-20T11:27:20.540Z,304.34
2019-04-20T11:28:19.875Z,304.95
2019-04-20T11:29:20.105Z,302.83
2019-04-20T11:30:20.372Z,302.62
2019-04-20T11:31:20.031Z,304.13
2019-04-20T11:32:20.197Z,304.93
2019-04-20T11:33:20.380Z,302.88
2019-04-20T11:34:23.615Z,305.80
2019-04-20T11:35:27.822Z,306.25
2019-04-20T11:36:21.233Z,304.90
2019-04-20T11:37:19.458Z,305.79
2019-04-20T11:38:19.733Z,304.87
2019-04-20T11:39:20.813Z,306.06
2019-04-20T11:40:19.424Z,303.34
2019-04-20T11:41:25.659Z,304.28
2019-04-20T11:42:21.740Z,304.67
2019-04-20T11:43:19.826Z,304.86
2019-04-20T11:44:19.987Z,304.48
2019-04-20T11:45:20.570Z,305.00
2019-04-20T11:46:20.596Z,304.01
2019-04-20T11:47:19.391Z,305.24
2019-04-20T11:48:19.407Z,304.72
2019-04-20T11:49:19.498Z,305.43
2019-04-20T11:50:19.856Z,303.96
2019-04-20T11:51:19.326Z,304.50
2019-04-20T11:52:21.399Z,304.09
2019-04-20T11:53:19.459Z,305.83
2019-04-20T11:54:19.309Z,303.87
2019-04-20T11:55:20.176Z,303.82
2019-04-20T11:56:23.916Z,303.84
2019-04-20T11:57:21.333Z,304.93
2019-04-20T11:58:19.716Z,304.71
2019-04-20T11:59:19.258Z,303.73
2019-04-20T12:00:21.965Z,304.25
2019-04-20T12:01:22.558Z,302.99
2019-04-20T12:02:26.920Z,305.19
2019-04-20T12:03:27.965Z,304.54
2019-04-20T12:04:34.031Z,304.76
2019-04-20T12:05:31.583Z,305.49
2019-04-20T12:06:21.147Z,304.81
2019-04-20T12:07:19.284Z,303.76
2019-04-20T12:08:19.131Z,305.09
2019-04-20T12:09:19.141Z,306.38
2019-04-20T12:10:22.306Z,302.90
2019-04-20T12:11:30.392Z,305.29
2019-04-20T12:12:29.990Z,304.63
2019-04-20T12:13:20.547Z,307.05
2019-04-20T12:14:19.084Z,304.69
2019-04-20T12:15:19.065Z,307.00
2019-04-20T12:16:19.372Z,305.36
2019-04-20T12:17:19.651Z,305.89
2019-04-20T12:18:19.828Z,308.29
2019-04-20T12:19:19.068Z,305.46
2019-04-20T12:20:19.056Z,308.08
2019-04-20T12:21:19.217Z,303.37
2019-04-20T12:22:19.014Z,309.66
2019-04-20T12:23:20.127Z,306.90
2019-04-20T12:24:20.385Z,307.08
2019-04-20T12:25:20.380Z,307.07
2019-04-20T12:26:18.960Z,308.08
2019-04-20T12:27:18.960Z,307.10
2019-04-20T12:28:19.868Z,303.02
2019-04-20T12:29:19.561Z,303.40
2019-04-20T12:30:19.622Z,301.72
2019-04-20T12:31:22.800Z,302.65
2019-04-20T12:32:19.910Z,298.93
2019-04-20T12:33:18.873Z,302.81
2019-04-20T12:34:20.167Z,298.83
2019-04-20T12:35:20.062Z,301.28
2019-04-20T12:36:18.878Z,302.32
2019-04-20T12:37:18.903Z,300.37
2019-04-20T12:38:19.178Z,303.01
2019-04-20T12:39:19.299Z,303.94
2019-04-20T12:40:19.899Z,301.41
2019-04-20T12:41:31.125Z,302.36
2019-04-20T12:42:21.108Z,303.21
2019-04-20T12:43:19.071Z,298.85
2019-04-20T12:44:19.714Z,300.96
2019-04-20T12:45:19.646Z,300.53
2019-04-20T12:46:21.409Z,298.61
2019-04-20T12:47:19.630Z,299.66
2019-04-20T12:48:19.747Z,296.85
2019-04-20T12:49:19.887Z,296.10
2019-04-20T12:50:19.358Z,296.57
2019-04-20T12:51:19.635Z,297.87
2019-04-20T12:52:18.687Z,292.90
2019-04-20T12:53:18.688Z,297.44
2019-04-20T12:54:18.669Z,296.94
2019-04-20T12:55:18.844Z,296.94